sensor_id;sensor_type;location;lat;lon;timestamp;temperature;humidity
46336;DHT22;31365;48.858;8.530;2023-05-27T00:00:43;13.50;99.90
46336;DHT22;31365;48.858;8.530;2023-05-27T00:03:13;13.50;99.90
46336;DHT22;31365;48.858;8.530;2023-05-27T00:05:42;13.40;99.90
46336;DHT22;31365;48.858;8.530;2023-05-27T00:08:10;13.50;99.90
46336;DHT22;31365;48.858;8.530;2023-05-27T00:10:39;13.40;99.90
46336;DHT22;31365;48.858;8.530;2023-05-27T00:13:07;13.40;99.90
46336;DHT22;31365;48.858;8.530;2023-05-27T00:15:37;13.40;99.90
46336;DHT22;31365;48.858;8.530;2023-05-27T00:18:07;13.30;99.90
46336;DHT22;31365;48.858;8.530;2023-05-27T00:20:36;13.20;99.90
46336;DHT22;31365;48.858;8.530;2023-05-27T00:23:04;13.20;99.90
46336;DHT22;31365;48.858;8.530;2023-05-27T00:25:32;13.20;99.90
46336;DHT22;31365;48.858;8.530;2023-05-27T00:28:01;13.20;99.90
46336;DHT22;31365;48.858;8.530;2023-05-27T00:30:29;13.20;99.90
46336;DHT22;31365;48.858;8.530;2023-05-27T00:32:59;13.20;99.90
46336;DHT22;31365;48.858;8.530;2023-05-27T00:35:28;13.20;99.90
46336;DHT22;31365;48.858;8.530;2023-05-27T00:37:57;13.20;99.90
46336;DHT22;31365;48.858;8.530;2023-05-27T00:40:29;13.20;99.90
46336;DHT22;31365;48.858;8.530;2023-05-27T00:42:58;13.10;99.90
46336;DHT22;31365;48.858;8.530;2023-05-27T00:45:26;13.10;99.90
46336;DHT22;31365;48.858;8.530;2023-05-27T00:47:54;12.90;99.90
46336;DHT22;31365;48.858;8.530;2023-05-27T00:50:22;12.90;99.90
46336;DHT22;31365;48.858;8.530;2023-05-27T00:52:53;12.80;99.90
46336;DHT22;31365;48.858;8.530;2023-05-27T00:55:23;12.80;99.90
46336;DHT22;31365;48.858;8.530;2023-05-27T00:57:52;12.80;99.90
46336;DHT22;31365;48.858;8.530;2023-05-27T03:18:51;11.30;99.90
46336;DHT22;31365;48.858;8.530;2023-05-27T03:21:19;11.20;99.90
46336;DHT22;31365;48.858;8.530;2023-05-27T03:23:48;11.20;99.90
46336;DHT22;31365;48.858;8.530;2023-05-27T03:26:17;11.20;99.90
46336;DHT22;31365;48.858;8.530;2023-05-27T03:28:46;11.20;99.90
46336;DHT22;31365;48.858;8.530;2023-05-27T03:31:15;11.30;99.90
46336;DHT22;31365;48.858;8.530;2023-05-27T03:34:08;11.30;99.90
46336;DHT22;31365;48.858;8.530;2023-05-27T03:36:39;11.40;99.90
46336;DHT22;31365;48.858;8.530;2023-05-27T03:39:10;11.40;99.90
46336;DHT22;31365;48.858;8.530;2023-05-27T03:41:42;11.50;99.90
46336;DHT22;31365;48.858;8.530;2023-05-27T03:44:12;11.50;99.90
46336;DHT22;31365;48.858;8.530;2023-05-27T03:46:40;11.60;99.90
46336;DHT22;31365;48.858;8.530;2023-05-27T03:49:10;11.60;99.90
46336;DHT22;31365;48.858;8.530;2023-05-27T03:51:39;11.50;99.90
46336;DHT22;31365;48.858;8.530;2023-05-27T03:54:08;11.40;99.90
46336;DHT22;31365;48.858;8.530;2023-05-27T03:56:36;11.40;99.90
46336;DHT22;31365;48.858;8.530;2023-05-27T03:59:04;11.40;99.90
46336;DHT22;31365;48.858;8.530;2023-05-27T04:01:33;11.40;99.90
46336;DHT22;31365;48.858;8.530;2023-05-27T04:04:01;11.40;99.90
46336;DHT22;31365;48.858;8.530;2023-05-27T04:06:31;11.40;99.90
46336;DHT22;31365;48.858;8.530;2023-05-27T04:09:00;11.50;99.90
46336;DHT22;31365;48.858;8.530;2023-05-27T04:11:30;11.40;99.90
46336;DHT22;31365;48.858;8.530;2023-05-27T04:13:59;11.50;99.90
46336;DHT22;31365;48.858;8.530;2023-05-27T04:16:27;11.50;99.90
46336;DHT22;31365;48.858;8.530;2023-05-27T04:18:58;11.40;99.90
46336;DHT22;31365;48.858;8.530;2023-05-27T04:21:26;11.40;99.90
46336;DHT22;31365;48.858;8.530;2023-05-27T04:23:57;11.40;99.90
46336;DHT22;31365;48.858;8.530;2023-05-27T04:26:26;11.50;99.90
46336;DHT22;31365;48.858;8.530;2023-05-27T04:28:54;11.60;99.90
46336;DHT22;31365;48.858;8.530;2023-05-27T04:31:27;11.60;99.90
46336;DHT22;31365;48.858;8.530;2023-05-27T04:34:04;11.70;99.90
46336;DHT22;31365;48.858;8.530;2023-05-27T04:36:34;11.80;99.90
46336;DHT22;31365;48.858;8.530;2023-05-27T04:39:08;11.90;99.90
46336;DHT22;31365;48.858;8.530;2023-05-27T04:41:41;12.00;99.90
46336;DHT22;31365;48.858;8.530;2023-05-27T04:44:12;12.00;99.90
46336;DHT22;31365;48.858;8.530;2023-05-27T04:46:43;12.10;99.90
46336;DHT22;31365;48.858;8.530;2023-05-27T04:49:12;12.30;99.90
46336;DHT22;31365;48.858;8.530;2023-05-27T04:51:40;12.30;99.90
46336;DHT22;31365;48.858;8.530;2023-05-27T04:54:10;12.40;99.90
46336;DHT22;31365;48.858;8.530;2023-05-27T04:56:39;12.40;99.90
46336;DHT22;31365;48.858;8.530;2023-05-27T04:59:13;12.30;99.90
46336;DHT22;31365;48.858;8.530;2023-05-27T05:01:44;12.50;99.90
46336;DHT22;31365;48.858;8.530;2023-05-27T05:04:55;12.60;99.90
46336;DHT22;31365;48.858;8.530;2023-05-27T05:07:23;12.70;99.90
46336;DHT22;31365;48.858;8.530;2023-05-27T05:09:53;12.90;99.90
46336;DHT22;31365;48.858;8.530;2023-05-27T05:12:29;12.90;99.90
46336;DHT22;31365;48.858;8.530;2023-05-27T05:14:58;12.80;99.90
46336;DHT22;31365;48.858;8.530;2023-05-27T05:17:26;12.90;99.90
46336;DHT22;31365;48.858;8.530;2023-05-27T05:19:55;12.90;99.90
46336;DHT22;31365;48.858;8.530;2023-05-27T05:22:24;13.00;99.90
46336;DHT22;31365;48.858;8.530;2023-05-27T05:24:57;13.00;99.90
46336;DHT22;31365;48.858;8.530;2023-05-27T05:27:31;13.10;99.90
46336;DHT22;31365;48.858;8.530;2023-05-27T05:29:59;13.10;99.90
46336;DHT22;31365;48.858;8.530;2023-05-27T05:32:28;13.20;99.90
46336;DHT22;31365;48.858;8.530;2023-05-27T05:34:56;13.20;99.90
46336;DHT22;31365;48.858;8.530;2023-05-27T05:37:26;13.30;99.90
46336;DHT22;31365;48.858;8.530;2023-05-27T05:39:56;13.40;99.90
46336;DHT22;31365;48.858;8.530;2023-05-27T05:42:25;13.70;99.90
46336;DHT22;31365;48.858;8.530;2023-05-27T05:44:54;13.90;99.90
46336;DHT22;31365;48.858;8.530;2023-05-27T05:47:23;14.10;99.90
46336;DHT22;31365;48.858;8.530;2023-05-27T05:50:01;14.10;99.90
46336;DHT22;31365;48.858;8.530;2023-05-27T05:52:30;14.20;99.90
46336;DHT22;31365;48.858;8.530;2023-05-27T05:55:00;14.20;99.90
46336;DHT22;31365;48.858;8.530;2023-05-27T06:00:48;14.30;99.90
46336;DHT22;31365;48.858;8.530;2023-05-27T06:03:32;14.40;99.90
46336;DHT22;31365;48.858;8.530;2023-05-27T06:06:01;14.40;99.90
46336;DHT22;31365;48.858;8.530;2023-05-27T06:08:31;14.50;99.90
46336;DHT22;31365;48.858;8.530;2023-05-27T06:11:11;14.60;99.90
46336;DHT22;31365;48.858;8.530;2023-05-27T06:13:41;14.60;99.90
46336;DHT22;31365;48.858;8.530;2023-05-27T06:16:12;14.70;99.90
46336;DHT22;31365;48.858;8.530;2023-05-27T06:18:40;14.70;99.90
46336;DHT22;31365;48.858;8.530;2023-05-27T06:21:13;14.80;99.90
46336;DHT22;31365;48.858;8.530;2023-05-27T06:24:08;14.90;99.90
46336;DHT22;31365;48.858;8.530;2023-05-27T06:26:43;15.00;99.90
46336;DHT22;31365;48.858;8.530;2023-05-27T06:29:11;15.10;99.90
46336;DHT22;31365;48.858;8.530;2023-05-27T06:31:40;15.20;99.90
46336;DHT22;31365;48.858;8.530;2023-05-27T06:34:08;15.20;99.90
46336;DHT22;31365;48.858;8.530;2023-05-27T06:36:37;15.40;99.90
46336;DHT22;31365;48.858;8.530;2023-05-27T06:39:05;15.50;99.90
46336;DHT22;31365;48.858;8.530;2023-05-27T06:41:35;15.50;99.90
46336;DHT22;31365;48.858;8.530;2023-05-27T06:44:30;15.60;99.90
46336;DHT22;31365;48.858;8.530;2023-05-27T06:47:03;15.60;99.90
46336;DHT22;31365;48.858;8.530;2023-05-27T06:49:33;15.60;99.90
46336;DHT22;31365;48.858;8.530;2023-05-27T06:52:03;15.70;99.90
46336;DHT22;31365;48.858;8.530;2023-05-27T06:54:47;15.80;99.90
46336;DHT22;31365;48.858;8.530;2023-05-27T06:57:51;15.70;99.90
46336;DHT22;31365;48.858;8.530;2023-05-27T07:00:28;15.90;99.90
46336;DHT22;31365;48.858;8.530;2023-05-27T07:03:12;16.10;99.90
46336;DHT22;31365;48.858;8.530;2023-05-27T07:05:40;16.20;99.90
46336;DHT22;31365;48.858;8.530;2023-05-27T07:08:09;16.20;99.90
46336;DHT22;31365;48.858;8.530;2023-05-27T07:10:38;16.20;99.90
46336;DHT22;31365;48.858;8.530;2023-05-27T07:13:07;16.30;99.90
46336;DHT22;31365;48.858;8.530;2023-05-27T07:15:43;16.40;99.90
46336;DHT22;31365;48.858;8.530;2023-05-27T07:18:12;16.40;99.90
46336;DHT22;31365;48.858;8.530;2023-05-27T07:20:42;16.40;99.90
46336;DHT22;31365;48.858;8.530;2023-05-27T07:23:13;16.50;99.90
46336;DHT22;31365;48.858;8.530;2023-05-27T07:25:45;16.60;99.90
46336;DHT22;31365;48.858;8.530;2023-05-27T07:28:14;16.70;99.90
46336;DHT22;31365;48.858;8.530;2023-05-27T07:30:48;16.70;99.90
46336;DHT22;31365;48.858;8.530;2023-05-27T07:33:17;16.80;99.90
46336;DHT22;31365;48.858;8.530;2023-05-27T07:35:46;16.90;99.90
46336;DHT22;31365;48.858;8.530;2023-05-27T07:38:14;17.00;99.90
46336;DHT22;31365;48.858;8.530;2023-05-27T07:40:42;17.00;99.90
46336;DHT22;31365;48.858;8.530;2023-05-27T07:43:10;17.00;99.90
46336;DHT22;31365;48.858;8.530;2023-05-27T07:45:39;17.10;99.90
46336;DHT22;31365;48.858;8.530;2023-05-27T07:48:08;17.10;99.90
46336;DHT22;31365;48.858;8.530;2023-05-27T07:50:37;17.20;99.90
46336;DHT22;31365;48.858;8.530;2023-05-27T07:53:14;17.20;99.90
46336;DHT22;31365;48.858;8.530;2023-05-27T07:55:42;17.30;99.90
46336;DHT22;31365;48.858;8.530;2023-05-27T07:58:11;17.30;99.90
46336;DHT22;31365;48.858;8.530;2023-05-27T08:00:51;17.40;99.90
46336;DHT22;31365;48.858;8.530;2023-05-27T08:03:21;17.40;99.90
46336;DHT22;31365;48.858;8.530;2023-05-27T08:06:07;17.40;99.90
46336;DHT22;31365;48.858;8.530;2023-05-27T08:08:58;17.50;99.90
46336;DHT22;31365;48.858;8.530;2023-05-27T08:11:34;17.60;99.90
46336;DHT22;31365;48.858;8.530;2023-05-27T08:14:21;17.60;99.90
46336;DHT22;31365;48.858;8.530;2023-05-27T08:17:27;17.80;99.90
46336;DHT22;31365;48.858;8.530;2023-05-27T08:20:10;17.90;99.90
46336;DHT22;31365;48.858;8.530;2023-05-27T08:22:54;18.00;99.90
46336;DHT22;31365;48.858;8.530;2023-05-27T08:25:49;18.00;99.90
46336;DHT22;31365;48.858;8.530;2023-05-27T08:28:50;18.00;99.90
46336;DHT22;31365;48.858;8.530;2023-05-27T08:31:46;18.10;99.90
46336;DHT22;31365;48.858;8.530;2023-05-27T08:34:14;18.10;99.90
46336;DHT22;31365;48.858;8.530;2023-05-27T08:36:44;18.20;99.90
46336;DHT22;31365;48.858;8.530;2023-05-27T08:39:13;18.30;99.90
46336;DHT22;31365;48.858;8.530;2023-05-27T08:41:48;18.40;99.90
46336;DHT22;31365;48.858;8.530;2023-05-27T08:44:17;18.40;99.90
46336;DHT22;31365;48.858;8.530;2023-05-27T08:46:57;18.50;99.90
46336;DHT22;31365;48.858;8.530;2023-05-27T08:49:26;18.50;99.90
46336;DHT22;31365;48.858;8.530;2023-05-27T08:51:57;18.60;99.90
46336;DHT22;31365;48.858;8.530;2023-05-27T08:54:29;18.50;99.90
46336;DHT22;31365;48.858;8.530;2023-05-27T08:57:02;18.60;99.90
46336;DHT22;31365;48.858;8.530;2023-05-27T08:59:34;18.60;99.90
46336;DHT22;31365;48.858;8.530;2023-05-27T09:02:08;18.70;99.90
46336;DHT22;31365;48.858;8.530;2023-05-27T09:09:32;19.00;99.90
46336;DHT22;31365;48.858;8.530;2023-05-27T09:12:02;19.00;99.90
46336;DHT22;31365;48.858;8.530;2023-05-27T09:14:31;19.00;99.90
46336;DHT22;31365;48.858;8.530;2023-05-27T09:17:05;19.00;99.90
46336;DHT22;31365;48.858;8.530;2023-05-27T09:19:34;19.10;99.90
46336;DHT22;31365;48.858;8.530;2023-05-27T09:22:03;19.20;99.90
46336;DHT22;31365;48.858;8.530;2023-05-27T09:24:33;19.20;99.90
46336;DHT22;31365;48.858;8.530;2023-05-27T09:27:01;19.30;99.90
46336;DHT22;31365;48.858;8.530;2023-05-27T09:29:31;19.40;99.90
46336;DHT22;31365;48.858;8.530;2023-05-27T09:32:01;19.40;99.90
46336;DHT22;31365;48.858;8.530;2023-05-27T09:34:30;19.50;99.90
46336;DHT22;31365;48.858;8.530;2023-05-27T09:36:58;19.60;99.90
46336;DHT22;31365;48.858;8.530;2023-05-27T09:39:27;19.70;99.90
46336;DHT22;31365;48.858;8.530;2023-05-27T09:41:57;19.70;99.90
46336;DHT22;31365;48.858;8.530;2023-05-27T09:44:28;19.80;99.90
46336;DHT22;31365;48.858;8.530;2023-05-27T09:46:58;19.90;99.90
46336;DHT22;31365;48.858;8.530;2023-05-27T09:49:29;20.00;99.90
46336;DHT22;31365;48.858;8.530;2023-05-27T09:52:01;20.10;99.90
46336;DHT22;31365;48.858;8.530;2023-05-27T09:54:30;20.10;99.90
46336;DHT22;31365;48.858;8.530;2023-05-27T09:57:01;20.20;99.90
46336;DHT22;31365;48.858;8.530;2023-05-27T09:59:32;20.40;99.90
46336;DHT22;31365;48.858;8.530;2023-05-27T10:02:01;20.30;99.90
46336;DHT22;31365;48.858;8.530;2023-05-27T10:04:30;20.40;99.90
46336;DHT22;31365;48.858;8.530;2023-05-27T10:06:59;20.50;99.90
46336;DHT22;31365;48.858;8.530;2023-05-27T10:09:29;20.40;99.90
46336;DHT22;31365;48.858;8.530;2023-05-27T10:11:58;20.40;99.90
46336;DHT22;31365;48.858;8.530;2023-05-27T10:14:29;20.50;99.90
46336;DHT22;31365;48.858;8.530;2023-05-27T10:16:57;20.70;99.90
46336;DHT22;31365;48.858;8.530;2023-05-27T10:19:26;20.90;99.90
46336;DHT22;31365;48.858;8.530;2023-05-27T10:21:54;21.00;99.90
46336;DHT22;31365;48.858;8.530;2023-05-27T10:24:31;21.00;99.90
46336;DHT22;31365;48.858;8.530;2023-05-27T10:27:01;21.10;99.90
46336;DHT22;31365;48.858;8.530;2023-05-27T10:29:37;21.20;99.90
46336;DHT22;31365;48.858;8.530;2023-05-27T10:32:06;21.40;99.90
46336;DHT22;31365;48.858;8.530;2023-05-27T10:34:35;21.40;99.90
46336;DHT22;31365;48.858;8.530;2023-05-27T10:37:04;21.50;99.90
46336;DHT22;31365;48.858;8.530;2023-05-27T10:39:34;21.60;99.90
46336;DHT22;31365;48.858;8.530;2023-05-27T10:42:03;21.70;99.90
46336;DHT22;31365;48.858;8.530;2023-05-27T10:44:33;21.80;99.90
46336;DHT22;31365;48.858;8.530;2023-05-27T10:47:08;21.90;99.90
46336;DHT22;31365;48.858;8.530;2023-05-27T10:49:39;22.10;99.90
46336;DHT22;31365;48.858;8.530;2023-05-27T10:52:09;22.10;99.90
46336;DHT22;31365;48.858;8.530;2023-05-27T10:54:40;22.20;99.90
46336;DHT22;31365;48.858;8.530;2023-05-27T10:57:10;22.30;99.90
46336;DHT22;31365;48.858;8.530;2023-05-27T10:59:42;22.30;99.90
46336;DHT22;31365;48.858;8.530;2023-05-27T11:02:17;22.40;99.90
46336;DHT22;31365;48.858;8.530;2023-05-27T11:04:47;22.50;99.90
46336;DHT22;31365;48.858;8.530;2023-05-27T11:07:18;22.50;99.90
46336;DHT22;31365;48.858;8.530;2023-05-27T11:09:47;22.60;99.90
46336;DHT22;31365;48.858;8.530;2023-05-27T11:12:18;22.70;99.90
46336;DHT22;31365;48.858;8.530;2023-05-27T11:14:48;22.90;99.90
46336;DHT22;31365;48.858;8.530;2023-05-27T11:17:20;23.30;99.90
46336;DHT22;31365;48.858;8.530;2023-05-27T11:19:49;23.50;99.90
46336;DHT22;31365;48.858;8.530;2023-05-27T11:22:18;23.90;99.90
46336;DHT22;31365;48.858;8.530;2023-05-27T11:24:55;24.60;99.90
46336;DHT22;31365;48.858;8.530;2023-05-27T11:27:25;25.40;99.90
46336;DHT22;31365;48.858;8.530;2023-05-27T11:30:00;25.90;99.90
46336;DHT22;31365;48.858;8.530;2023-05-27T11:32:38;26.40;99.90
46336;DHT22;31365;48.858;8.530;2023-05-27T11:35:13;27.00;99.80
46336;DHT22;31365;48.858;8.530;2023-05-27T11:37:45;27.70;98.70
46336;DHT22;31365;48.858;8.530;2023-05-27T11:40:15;28.20;97.40
46336;DHT22;31365;48.858;8.530;2023-05-27T11:42:43;28.40;96.00
46336;DHT22;31365;48.858;8.530;2023-05-27T11:45:16;28.70;95.90
46336;DHT22;31365;48.858;8.530;2023-05-27T11:47:47;28.70;93.70
46336;DHT22;31365;48.858;8.530;2023-05-27T11:50:18;29.10;93.60
46336;DHT22;31365;48.858;8.530;2023-05-27T11:52:51;29.20;92.40
46336;DHT22;31365;48.858;8.530;2023-05-27T11:55:20;29.40;91.80
46336;DHT22;31365;48.858;8.530;2023-05-27T11:57:50;29.30;90.90
46336;DHT22;31365;48.858;8.530;2023-05-27T12:00:19;29.40;90.60
46336;DHT22;31365;48.858;8.530;2023-05-27T12:02:49;29.80;90.50
46336;DHT22;31365;48.858;8.530;2023-05-27T12:05:17;30.20;88.60
46336;DHT22;31365;48.858;8.530;2023-05-27T12:07:48;30.50;87.60
46336;DHT22;31365;48.858;8.530;2023-05-27T12:10:17;30.90;86.70
46336;DHT22;31365;48.858;8.530;2023-05-27T12:12:45;31.10;86.30
46336;DHT22;31365;48.858;8.530;2023-05-27T12:15:13;31.20;83.40
46336;DHT22;31365;48.858;8.530;2023-05-27T12:17:41;31.10;82.80
46336;DHT22;31365;48.858;8.530;2023-05-27T12:20:12;31.30;82.80
46336;DHT22;31365;48.858;8.530;2023-05-27T12:22:41;31.80;81.60
46336;DHT22;31365;48.858;8.530;2023-05-27T12:25:11;31.80;79.70
46336;DHT22;31365;48.858;8.530;2023-05-27T12:27:39;31.90;79.10
46336;DHT22;31365;48.858;8.530;2023-05-27T12:30:08;31.60;77.90
46336;DHT22;31365;48.858;8.530;2023-05-27T12:32:37;32.00;77.40
46336;DHT22;31365;48.858;8.530;2023-05-27T12:35:05;32.30;75.60
46336;DHT22;31365;48.858;8.530;2023-05-27T12:37:35;32.40;75.40
46336;DHT22;31365;48.858;8.530;2023-05-27T12:40:04;32.80;75.20
46336;DHT22;31365;48.858;8.530;2023-05-27T12:42:35;32.60;73.50
46336;DHT22;31365;48.858;8.530;2023-05-27T12:45:05;32.60;73.40
46336;DHT22;31365;48.858;8.530;2023-05-27T12:47:34;32.60;73.10
46336;DHT22;31365;48.858;8.530;2023-05-27T12:50:03;32.90;72.80
46336;DHT22;31365;48.858;8.530;2023-05-27T12:52:32;33.50;71.10
46336;DHT22;31365;48.858;8.530;2023-05-27T12:55:02;34.00;71.40
46336;DHT22;31365;48.858;8.530;2023-05-27T12:57:31;34.00;68.20
46336;DHT22;31365;48.858;8.530;2023-05-27T12:59:59;34.20;69.00
46336;DHT22;31365;48.858;8.530;2023-05-27T13:02:27;34.30;67.50
46336;DHT22;31365;48.858;8.530;2023-05-27T13:04:55;34.80;66.30
46336;DHT22;31365;48.858;8.530;2023-05-27T13:07:24;35.30;66.50
46336;DHT22;31365;48.858;8.530;2023-05-27T13:09:52;35.40;64.20
46336;DHT22;31365;48.858;8.530;2023-05-27T13:12:21;35.70;63.20
46336;DHT22;31365;48.858;8.530;2023-05-27T13:14:50;36.00;64.00
46336;DHT22;31365;48.858;8.530;2023-05-27T13:17:18;36.20;62.30
46336;DHT22;31365;48.858;8.530;2023-05-27T13:19:47;36.50;60.10
46336;DHT22;31365;48.858;8.530;2023-05-27T13:22:16;36.20;59.60
46336;DHT22;31365;48.858;8.530;2023-05-27T13:24:45;36.60;58.80
46336;DHT22;31365;48.858;8.530;2023-05-27T13:27:13;36.40;58.00
46336;DHT22;31365;48.858;8.530;2023-05-27T13:31:09;36.80;58.20
46336;DHT22;31365;48.858;8.530;2023-05-27T13:33:37;36.80;58.20
46336;DHT22;31365;48.858;8.530;2023-05-27T13:36:05;37.10;57.20
46336;DHT22;31365;48.858;8.530;2023-05-27T13:38:34;37.40;56.50
46336;DHT22;31365;48.858;8.530;2023-05-27T13:41:02;37.20;57.00
46336;DHT22;31365;48.858;8.530;2023-05-27T13:43:30;37.40;57.40
46336;DHT22;31365;48.858;8.530;2023-05-27T13:45:58;37.40;56.40
46336;DHT22;31365;48.858;8.530;2023-05-27T13:48:28;38.00;56.00
46336;DHT22;31365;48.858;8.530;2023-05-27T13:50:57;38.00;54.70
46336;DHT22;31365;48.858;8.530;2023-05-27T13:53:25;37.40;54.80
46336;DHT22;31365;48.858;8.530;2023-05-27T13:55:54;37.20;55.10
46336;DHT22;31365;48.858;8.530;2023-05-27T13:58:22;37.70;55.10
46336;DHT22;31365;48.858;8.530;2023-05-27T14:00:50;38.40;54.10
46336;DHT22;31365;48.858;8.530;2023-05-27T14:03:18;38.20;53.50
46336;DHT22;31365;48.858;8.530;2023-05-27T14:05:48;38.30;53.70
46336;DHT22;31365;48.858;8.530;2023-05-27T14:08:19;38.20;53.40
46336;DHT22;31365;48.858;8.530;2023-05-27T14:10:47;38.50;52.80
46336;DHT22;31365;48.858;8.530;2023-05-27T14:13:15;38.50;53.10
46336;DHT22;31365;48.858;8.530;2023-05-27T14:15:43;37.70;52.60
46336;DHT22;31365;48.858;8.530;2023-05-27T14:18:11;36.90;53.10
46336;DHT22;31365;48.858;8.530;2023-05-27T14:20:39;36.90;52.80
46336;DHT22;31365;48.858;8.530;2023-05-27T14:23:09;37.20;53.40
46336;DHT22;31365;48.858;8.530;2023-05-27T14:25:39;37.80;52.80
46336;DHT22;31365;48.858;8.530;2023-05-27T14:28:07;37.70;52.70
46336;DHT22;31365;48.858;8.530;2023-05-27T14:30:35;38.00;52.40
46336;DHT22;31365;48.858;8.530;2023-05-27T14:33:03;38.40;52.60
46336;DHT22;31365;48.858;8.530;2023-05-27T14:35:34;38.60;52.20
46336;DHT22;31365;48.858;8.530;2023-05-27T14:38:03;38.70;51.50
46336;DHT22;31365;48.858;8.530;2023-05-27T14:40:33;38.50;50.70
46336;DHT22;31365;48.858;8.530;2023-05-27T14:43:02;38.10;50.80
46336;DHT22;31365;48.858;8.530;2023-05-27T14:45:31;38.00;51.10
46336;DHT22;31365;48.858;8.530;2023-05-27T14:47:59;38.00;51.60
46336;DHT22;31365;48.858;8.530;2023-05-27T14:50:28;38.30;50.80
46336;DHT22;31365;48.858;8.530;2023-05-27T14:52:56;38.60;50.80
46336;DHT22;31365;48.858;8.530;2023-05-27T14:55:24;38.40;50.30
46336;DHT22;31365;48.858;8.530;2023-05-27T14:57:54;38.20;50.80
46336;DHT22;31365;48.858;8.530;2023-05-27T15:00:23;38.30;50.70
46336;DHT22;31365;48.858;8.530;2023-05-27T15:02:51;38.10;51.40
46336;DHT22;31365;48.858;8.530;2023-05-27T15:05:20;38.30;51.00
46336;DHT22;31365;48.858;8.530;2023-05-27T15:07:48;37.80;50.80
46336;DHT22;31365;48.858;8.530;2023-05-27T15:10:17;37.60;51.00
46336;DHT22;31365;48.858;8.530;2023-05-27T15:12:46;36.60;51.20
46336;DHT22;31365;48.858;8.530;2023-05-27T15:15:18;35.00;52.80
46336;DHT22;31365;48.858;8.530;2023-05-27T15:17:48;33.50;54.60
46336;DHT22;31365;48.858;8.530;2023-05-27T15:20:17;32.40;55.70
46336;DHT22;31365;48.858;8.530;2023-05-27T15:22:46;31.30;57.10
46336;DHT22;31365;48.858;8.530;2023-05-27T15:25:15;30.70;57.80
46336;DHT22;31365;48.858;8.530;2023-05-27T15:27:44;30.30;59.10
46336;DHT22;31365;48.858;8.530;2023-05-27T15:30:12;29.70;59.10
46336;DHT22;31365;48.858;8.530;2023-05-27T15:32:42;29.20;59.80
46336;DHT22;31365;48.858;8.530;2023-05-27T15:35:11;28.80;61.30
46336;DHT22;31365;48.858;8.530;2023-05-27T15:37:40;28.50;60.80
46336;DHT22;31365;48.858;8.530;2023-05-27T15:40:09;28.30;62.10
46336;DHT22;31365;48.858;8.530;2023-05-27T15:42:37;28.10;61.40
46336;DHT22;31365;48.858;8.530;2023-05-27T15:45:07;27.80;61.40
46336;DHT22;31365;48.858;8.530;2023-05-27T15:47:35;27.60;61.70
46336;DHT22;31365;48.858;8.530;2023-05-27T15:50:06;27.50;61.30
46336;DHT22;31365;48.858;8.530;2023-05-27T15:52:35;27.30;62.70
46336;DHT22;31365;48.858;8.530;2023-05-27T15:55:03;27.20;62.70
46336;DHT22;31365;48.858;8.530;2023-05-27T15:57:32;27.10;62.30
46336;DHT22;31365;48.858;8.530;2023-05-27T16:00:02;27.10;62.20
46336;DHT22;31365;48.858;8.530;2023-05-27T16:02:37;27.00;62.70
46336;DHT22;31365;48.858;8.530;2023-05-27T16:05:07;26.90;61.60
46336;DHT22;31365;48.858;8.530;2023-05-27T16:07:39;26.80;61.80
46336;DHT22;31365;48.858;8.530;2023-05-27T16:10:08;26.70;61.50
46336;DHT22;31365;48.858;8.530;2023-05-27T16:12:37;26.50;62.00
46336;DHT22;31365;48.858;8.530;2023-05-27T16:15:06;26.40;61.80
46336;DHT22;31365;48.858;8.530;2023-05-27T16:17:35;26.30;62.30
46336;DHT22;31365;48.858;8.530;2023-05-27T16:20:05;26.20;61.90
46336;DHT22;31365;48.858;8.530;2023-05-27T16:22:35;26.00;62.20
46336;DHT22;31365;48.858;8.530;2023-05-27T16:25:04;25.90;62.00
46336;DHT22;31365;48.858;8.530;2023-05-27T16:27:33;25.90;62.20
46336;DHT22;31365;48.858;8.530;2023-05-27T16:30:02;25.70;61.90
46336;DHT22;31365;48.858;8.530;2023-05-27T16:32:30;25.60;62.20
46336;DHT22;31365;48.858;8.530;2023-05-27T16:34:59;25.50;61.90
46336;DHT22;31365;48.858;8.530;2023-05-27T16:37:28;25.50;62.10
46336;DHT22;31365;48.858;8.530;2023-05-27T16:39:56;25.40;62.20
46336;DHT22;31365;48.858;8.530;2023-05-27T16:42:24;25.20;62.40
46336;DHT22;31365;48.858;8.530;2023-05-27T16:44:52;25.20;62.40
46336;DHT22;31365;48.858;8.530;2023-05-27T16:47:21;25.20;63.10
46336;DHT22;31365;48.858;8.530;2023-05-27T16:49:50;25.00;62.20
46336;DHT22;31365;48.858;8.530;2023-05-27T16:52:18;24.90;61.30
46336;DHT22;31365;48.858;8.530;2023-05-27T16:54:48;24.80;61.50
46336;DHT22;31365;48.858;8.530;2023-05-27T16:57:16;24.70;62.30
46336;DHT22;31365;48.858;8.530;2023-05-27T16:59:44;24.70;62.60
46336;DHT22;31365;48.858;8.530;2023-05-27T17:02:12;24.60;62.60
46336;DHT22;31365;48.858;8.530;2023-05-27T17:04:40;24.60;63.40
46336;DHT22;31365;48.858;8.530;2023-05-27T17:07:08;24.50;62.70
46336;DHT22;31365;48.858;8.530;2023-05-27T17:09:37;24.40;62.80
46336;DHT22;31365;48.858;8.530;2023-05-27T17:12:07;24.30;62.30
46336;DHT22;31365;48.858;8.530;2023-05-27T17:14:36;24.10;63.10
46336;DHT22;31365;48.858;8.530;2023-05-27T17:17:04;24.10;63.50
46336;DHT22;31365;48.858;8.530;2023-05-27T17:19:33;24.10;63.40
46336;DHT22;31365;48.858;8.530;2023-05-27T17:22:01;24.00;63.60
46336;DHT22;31365;48.858;8.530;2023-05-27T17:24:29;23.90;63.40
46336;DHT22;31365;48.858;8.530;2023-05-27T17:26:57;23.80;64.00
46336;DHT22;31365;48.858;8.530;2023-05-27T17:29:28;23.80;64.50
46336;DHT22;31365;48.858;8.530;2023-05-27T17:31:56;23.70;64.50
46336;DHT22;31365;48.858;8.530;2023-05-27T17:34:24;23.60;64.70
46336;DHT22;31365;48.858;8.530;2023-05-27T17:36:53;23.60;64.90
46336;DHT22;31365;48.858;8.530;2023-05-27T17:39:21;23.60;64.90
46336;DHT22;31365;48.858;8.530;2023-05-27T17:41:49;23.60;64.90
46336;DHT22;31365;48.858;8.530;2023-05-27T17:44:18;23.50;65.00
46336;DHT22;31365;48.858;8.530;2023-05-27T17:46:47;23.50;65.30
46336;DHT22;31365;48.858;8.530;2023-05-27T17:49:16;23.40;65.70
46336;DHT22;31365;48.858;8.530;2023-05-27T17:51:44;23.30;66.00
46336;DHT22;31365;48.858;8.530;2023-05-27T17:54:13;23.20;66.90
46336;DHT22;31365;48.858;8.530;2023-05-27T17:56:41;23.20;67.90
46336;DHT22;31365;48.858;8.530;2023-05-27T17:59:09;23.20;68.40
46336;DHT22;31365;48.858;8.530;2023-05-27T18:01:38;23.00;69.00
46336;DHT22;31365;48.858;8.530;2023-05-27T18:04:07;23.00;69.30
46336;DHT22;31365;48.858;8.530;2023-05-27T18:06:36;22.90;69.30
46336;DHT22;31365;48.858;8.530;2023-05-27T18:09:04;22.80;70.00
46336;DHT22;31365;48.858;8.530;2023-05-27T18:11:35;22.70;70.20
46336;DHT22;31365;48.858;8.530;2023-05-27T18:14:03;22.60;70.30
46336;DHT22;31365;48.858;8.530;2023-05-27T18:16:32;22.50;70.70
46336;DHT22;31365;48.858;8.530;2023-05-27T18:19:01;22.40;71.10